ANZ9008 YBBN-YSSY
Flight info
| Callsign | ANZ9008 |
|---|---|
| Flight time | 1h 5m |
| Altitude | 36000 |
| Route | BN H91 IGDAM H652 TESAT |
| Aircraft | B77W/H-SDE1E2E3FGHIJ2J3J4J5M1RWXY/LB1D1 |
Departure
| Time | 2026-04-25 02:48 |
|---|---|
| Airport | Brisbane International Airport (YBBN) |
Arrival
| Time | 2026-04-25 03:53 |
|---|---|
| Airport | Sydney Kingsford Smith International Airport (YSSY) |
| Time | Latitude | Longitude | Altitude | Speed | Heading |
|---|---|---|---|---|---|
| 2026-04-25 02:03 | -27.40171 | 153.11241 | 28 ft | 0 kts | 297° |
| 2026-04-25 02:36 | -27.40174 | 153.11247 | 28 ft | 2 kts | 297° |
| 2026-04-25 02:36 | -27.40181 | 153.11263 | 28 ft | 2 kts | 297° |
| 2026-04-25 02:37 | -27.40188 | 153.11278 | 28 ft | 2 kts | 302° |
| 2026-04-25 02:37 | -27.40197 | 153.11290 | 28 ft | 2 kts | 324° |
| 2026-04-25 02:37 | -27.40210 | 153.11298 | 28 ft | 2 kts | 341° |
| 2026-04-25 02:37 | -27.40225 | 153.11301 | 28 ft | 2 kts | 359° |
| 2026-04-25 02:38 | -27.40239 | 153.11299 | 28 ft | 2 kts | 16° |
| 2026-04-25 02:38 | -27.40250 | 153.11295 | 28 ft | 0 kts | 30° |
| 2026-04-25 02:38 | -27.40242 | 153.11301 | 28 ft | 3 kts | 27° |
| 2026-04-25 02:38 | -27.40232 | 153.11305 | 28 ft | 2 kts | 28° |
| 2026-04-25 02:39 | -27.40224 | 153.11311 | 28 ft | 0 kts | 27° |
| 2026-04-25 02:41 | -27.40223 | 153.11311 | 28 ft | 0 kts | 27° |
| 2026-04-25 02:41 | -27.40212 | 153.11319 | 28 ft | 5 kts | 35° |
| 2026-04-25 02:42 | -27.40196 | 153.11383 | 28 ft | 11 kts | 103° |
| 2026-04-25 02:42 | -27.40204 | 153.11478 | 28 ft | 13 kts | 61° |
| 2026-04-25 02:42 | -27.40118 | 153.11549 | 28 ft | 16 kts | 28° |
| 2026-04-25 02:42 | -27.40005 | 153.11614 | 28 ft | 19 kts | 27° |
| 2026-04-25 02:43 | -27.39876 | 153.11688 | 28 ft | 22 kts | 27° |
| 2026-04-25 02:43 | -27.39730 | 153.11771 | 28 ft | 24 kts | 27° |
| 2026-04-25 02:43 | -27.39572 | 153.11862 | 28 ft | 26 kts | 27° |
| 2026-04-25 02:43 | -27.39400 | 153.11957 | 28 ft | 28 kts | 27° |
| 2026-04-25 02:44 | -27.39220 | 153.12062 | 28 ft | 29 kts | 26° |
| 2026-04-25 02:44 | -27.39039 | 153.12164 | 28 ft | 29 kts | 27° |
| 2026-04-25 02:44 | -27.38858 | 153.12268 | 28 ft | 29 kts | 27° |
| 2026-04-25 02:44 | -27.38678 | 153.12372 | 28 ft | 29 kts | 27° |
| 2026-04-25 02:45 | -27.38497 | 153.12474 | 28 ft | 29 kts | 27° |
| 2026-04-25 02:45 | -27.38254 | 153.12613 | 28 ft | 29 kts | 27° |
| 2026-04-25 02:45 | -27.38135 | 153.12682 | 28 ft | 29 kts | 27° |
| 2026-04-25 02:45 | -27.37954 | 153.12785 | 28 ft | 29 kts | 27° |
| 2026-04-25 02:46 | -27.37771 | 153.12889 | 28 ft | 29 kts | 27° |
| 2026-04-25 02:46 | -27.37590 | 153.12993 | 28 ft | 29 kts | 27° |
| 2026-04-25 02:46 | -27.37409 | 153.13097 | 28 ft | 29 kts | 27° |
| 2026-04-25 02:46 | -27.37272 | 153.13222 | 28 ft | 22 kts | 93° |
| 2026-04-25 02:47 | -27.37346 | 153.13377 | 28 ft | 22 kts | 134° |
| 2026-04-25 02:47 | -27.37501 | 153.13411 | 28 ft | 33 kts | 201° |
| 2026-04-25 02:47 | -27.37989 | 153.13133 | 28 ft | 127 kts | 206° |
| 2026-04-25 02:47 | -27.39019 | 153.12526 | 314 ft | 192 kts | 206° |
| 2026-04-25 02:48 | -27.40164 | 153.11874 | 1735 ft | 183 kts | 201° |
| 2026-04-25 02:48 | -27.41235 | 153.11272 | 2662 ft | 180 kts | 199° |
| 2026-04-25 02:48 | -27.42459 | 153.10713 | 3168 ft | 195 kts | 181° |
| 2026-04-25 02:48 | -27.43845 | 153.10751 | 3710 ft | 209 kts | 162° |
| 2026-04-25 02:49 | -27.45226 | 153.11424 | 4338 ft | 224 kts | 144° |
| 2026-04-25 02:49 | -27.46534 | 153.12445 | 5050 ft | 240 kts | 142° |
| 2026-04-25 02:49 | -27.47923 | 153.13557 | 5990 ft | 249 kts | 142° |
| 2026-04-25 02:49 | -27.49456 | 153.14461 | 6935 ft | 258 kts | 161° |
| 2026-04-25 02:50 | -27.51257 | 153.14589 | 7875 ft | 271 kts | 184° |
| 2026-04-25 02:50 | -27.53104 | 153.14162 | 8896 ft | 274 kts | 188° |
| 2026-04-25 02:50 | -27.54960 | 153.13667 | 9777 ft | 281 kts | 189° |
| 2026-04-25 02:50 | -27.56875 | 153.13008 | 10558 ft | 293 kts | 195° |
| 2026-04-25 02:51 | -27.58845 | 153.12234 | 11142 ft | 311 kts | 195° |
| 2026-04-25 02:51 | -27.60931 | 153.11412 | 11764 ft | 326 kts | 195° |
| 2026-04-25 02:51 | -27.63158 | 153.10576 | 12390 ft | 341 kts | 193° |
| 2026-04-25 02:51 | -27.65474 | 153.09817 | 13012 ft | 356 kts | 192° |
| 2026-04-25 02:52 | -27.67883 | 153.09032 | 13641 ft | 371 kts | 193° |
| 2026-04-25 02:52 | -27.70431 | 153.08189 | 14328 ft | 384 kts | 193° |
| 2026-04-25 02:52 | -27.73009 | 153.07332 | 15140 ft | 393 kts | 193° |
| 2026-04-25 02:52 | -27.75635 | 153.06455 | 16151 ft | 395 kts | 193° |
| 2026-04-25 02:53 | -27.78260 | 153.05577 | 17148 ft | 397 kts | 193° |
| 2026-04-25 02:53 | -27.80936 | 153.04681 | 18047 ft | 402 kts | 194° |
| 2026-04-25 02:53 | -27.83610 | 153.03726 | 18924 ft | 408 kts | 197° |
| 2026-04-25 02:53 | -27.86243 | 153.02560 | 19775 ft | 413 kts | 199° |
| 2026-04-25 02:54 | -27.88934 | 153.01350 | 20606 ft | 418 kts | 199° |
| 2026-04-25 02:54 | -27.91630 | 153.00146 | 21417 ft | 422 kts | 198° |
| 2026-04-25 02:54 | -27.94366 | 152.98932 | 22276 ft | 425 kts | 198° |
| 2026-04-25 02:54 | -27.97128 | 152.97710 | 23075 ft | 429 kts | 198° |
| 2026-04-25 02:55 | -27.99910 | 152.96481 | 23827 ft | 433 kts | 198° |
| 2026-04-25 02:55 | -28.02750 | 152.95230 | 24575 ft | 436 kts | 198° |
| 2026-04-25 02:55 | -28.05571 | 152.93986 | 25292 ft | 439 kts | 198° |
| 2026-04-25 02:55 | -28.08429 | 152.92729 | 25964 ft | 443 kts | 198° |
| 2026-04-25 02:56 | -28.11309 | 152.91457 | 26618 ft | 447 kts | 198° |
| 2026-04-25 02:56 | -28.14231 | 152.90155 | 27328 ft | 449 kts | 198° |
| 2026-04-25 02:56 | -28.17115 | 152.88872 | 28043 ft | 451 kts | 198° |
| 2026-04-25 02:56 | -28.20037 | 152.87572 | 28683 ft | 455 kts | 198° |
| 2026-04-25 02:57 | -28.23006 | 152.86250 | 29310 ft | 459 kts | 198° |
| 2026-04-25 02:57 | -28.25993 | 152.84920 | 29990 ft | 462 kts | 198° |
| 2026-04-25 02:57 | -28.28953 | 152.83600 | 30735 ft | 460 kts | 198° |
| 2026-04-25 02:57 | -28.31912 | 152.82280 | 31554 ft | 456 kts | 198° |
| 2026-04-25 02:58 | -28.34841 | 152.80972 | 32380 ft | 450 kts | 198° |
| 2026-04-25 02:58 | -28.37744 | 152.79675 | 33130 ft | 446 kts | 199° |
| 2026-04-25 02:58 | -28.40630 | 152.78387 | 33745 ft | 444 kts | 199° |
| 2026-04-25 02:58 | -28.43465 | 152.77121 | 34340 ft | 443 kts | 199° |
| 2026-04-25 02:59 | -28.46329 | 152.75841 | 34948 ft | 442 kts | 199° |
| 2026-04-25 02:59 | -28.49203 | 152.74554 | 35576 ft | 440 kts | 199° |
| 2026-04-25 02:59 | -28.52016 | 152.73296 | 36116 ft | 439 kts | 199° |
| 2026-04-25 02:59 | -28.54887 | 152.72011 | 36288 ft | 442 kts | 199° |
| 2026-04-25 03:00 | -28.57722 | 152.70740 | 36301 ft | 440 kts | 199° |
| 2026-04-25 03:00 | -28.63380 | 152.68202 | 36306 ft | 436 kts | 199° |
| 2026-04-25 03:01 | -28.69050 | 152.65657 | 36311 ft | 437 kts | 199° |
| 2026-04-25 03:01 | -28.74697 | 152.63119 | 36303 ft | 435 kts | 199° |
| 2026-04-25 03:02 | -28.80331 | 152.60584 | 36306 ft | 435 kts | 199° |
| 2026-04-25 03:02 | -28.85919 | 152.57918 | 36315 ft | 437 kts | 204° |
| 2026-04-25 03:03 | -28.91307 | 152.54727 | 36329 ft | 436 kts | 204° |
| 2026-04-25 03:03 | -28.96681 | 152.51527 | 36332 ft | 435 kts | 204° |
| 2026-04-25 03:04 | -29.02025 | 152.48343 | 36337 ft | 433 kts | 204° |
| 2026-04-25 03:04 | -29.07360 | 152.45161 | 36337 ft | 432 kts | 204° |
| 2026-04-25 03:05 | -29.15359 | 152.40385 | 36356 ft | 433 kts | 204° |
| 2026-04-25 03:05 | -29.20717 | 152.37181 | 36357 ft | 433 kts | 204° |
| 2026-04-25 03:06 | -29.26024 | 152.34004 | 36359 ft | 431 kts | 205° |
| 2026-04-25 03:06 | -29.31360 | 152.30806 | 36356 ft | 432 kts | 204° |
| 2026-04-25 03:07 | -29.36687 | 152.27609 | 36361 ft | 432 kts | 204° |
| 2026-04-25 03:07 | -29.42017 | 152.24408 | 36367 ft | 433 kts | 204° |
| 2026-04-25 03:08 | -29.47340 | 152.21207 | 36355 ft | 434 kts | 204° |
| 2026-04-25 03:08 | -29.52662 | 152.18001 | 36370 ft | 432 kts | 204° |
| 2026-04-25 03:09 | -29.57990 | 152.14790 | 36366 ft | 431 kts | 204° |
| 2026-04-25 03:09 | -29.63295 | 152.11587 | 36365 ft | 430 kts | 204° |
| 2026-04-25 03:10 | -29.68592 | 152.08424 | 36370 ft | 429 kts | 201° |
| 2026-04-25 03:10 | -29.74263 | 152.06364 | 36375 ft | 426 kts | 191° |
| 2026-04-25 03:11 | -29.80018 | 152.04875 | 36370 ft | 423 kts | 190° |
| 2026-04-25 03:11 | -29.85739 | 152.03391 | 36361 ft | 425 kts | 190° |
| 2026-04-25 03:12 | -29.91503 | 152.01888 | 36361 ft | 423 kts | 190° |
| 2026-04-25 03:12 | -29.97272 | 152.00382 | 36367 ft | 425 kts | 191° |
| 2026-04-25 03:13 | -30.03027 | 151.98875 | 36368 ft | 424 kts | 191° |
| 2026-04-25 03:13 | -30.08806 | 151.97360 | 36368 ft | 426 kts | 190° |
| 2026-04-25 03:14 | -30.14572 | 151.95847 | 36383 ft | 425 kts | 190° |
| 2026-04-25 03:14 | -30.20336 | 151.94331 | 36386 ft | 424 kts | 190° |
| 2026-04-25 03:15 | -30.26136 | 151.92804 | 36397 ft | 425 kts | 190° |
| 2026-04-25 03:15 | -30.31850 | 151.91252 | 36397 ft | 426 kts | 193° |
| 2026-04-25 03:16 | -30.37451 | 151.88798 | 36399 ft | 430 kts | 198° |
| 2026-04-25 03:16 | -30.43008 | 151.86209 | 36392 ft | 430 kts | 198° |
| 2026-04-25 03:17 | -30.48558 | 151.83623 | 36391 ft | 432 kts | 198° |
| 2026-04-25 03:17 | -30.54120 | 151.81029 | 36392 ft | 429 kts | 198° |
| 2026-04-25 03:18 | -30.59681 | 151.78433 | 36385 ft | 433 kts | 198° |
| 2026-04-25 03:18 | -30.65274 | 151.75819 | 36398 ft | 431 kts | 198° |
| 2026-04-25 03:19 | -30.70838 | 151.73216 | 36384 ft | 431 kts | 198° |
| 2026-04-25 03:19 | -30.76387 | 151.70618 | 36387 ft | 432 kts | 198° |
| 2026-04-25 03:20 | -30.81996 | 151.67989 | 36382 ft | 432 kts | 198° |
| 2026-04-25 03:20 | -30.87570 | 151.65370 | 36387 ft | 433 kts | 198° |
| 2026-04-25 03:21 | -30.93167 | 151.62740 | 36384 ft | 433 kts | 198° |
| 2026-04-25 03:21 | -30.98743 | 151.60115 | 36383 ft | 433 kts | 198° |
| 2026-04-25 03:22 | -31.04308 | 151.57492 | 36375 ft | 434 kts | 198° |
| 2026-04-25 03:22 | -31.09930 | 151.54840 | 36371 ft | 434 kts | 198° |
| 2026-04-25 03:23 | -31.15541 | 151.52188 | 36385 ft | 436 kts | 198° |
| 2026-04-25 03:23 | -31.21153 | 151.49533 | 36385 ft | 433 kts | 198° |
| 2026-04-25 03:24 | -31.26743 | 151.46886 | 36377 ft | 436 kts | 198° |
| 2026-04-25 03:24 | -31.32381 | 151.44211 | 36378 ft | 437 kts | 199° |
| 2026-04-25 03:25 | -31.37964 | 151.41560 | 36378 ft | 435 kts | 199° |
| 2026-04-25 03:25 | -31.43620 | 151.38991 | 36376 ft | 436 kts | 197° |
| 2026-04-25 03:26 | -31.49293 | 151.36470 | 36375 ft | 435 kts | 197° |
| 2026-04-25 03:26 | -31.54955 | 151.33948 | 36374 ft | 438 kts | 198° |
| 2026-04-25 03:27 | -31.60673 | 151.31390 | 36368 ft | 437 kts | 198° |
| 2026-04-25 03:27 | -31.66362 | 151.28844 | 36364 ft | 438 kts | 198° |
| 2026-04-25 03:28 | -31.72035 | 151.26297 | 36362 ft | 438 kts | 198° |
| 2026-04-25 03:28 | -31.77746 | 151.23732 | 36362 ft | 439 kts | 198° |
| 2026-04-25 03:29 | -31.83464 | 151.21159 | 36357 ft | 439 kts | 198° |
| 2026-04-25 03:29 | -31.89160 | 151.18593 | 36356 ft | 440 kts | 198° |
| 2026-04-25 03:30 | -31.94843 | 151.16029 | 36349 ft | 439 kts | 198° |
| 2026-04-25 03:30 | -31.97698 | 151.14748 | 35938 ft | 433 kts | 198° |
| 2026-04-25 03:30 | -32.00485 | 151.13500 | 35019 ft | 436 kts | 198° |
| 2026-04-25 03:31 | -32.03316 | 151.12231 | 34252 ft | 435 kts | 198° |
| 2026-04-25 03:31 | -32.06135 | 151.10968 | 33547 ft | 435 kts | 198° |
| 2026-04-25 03:31 | -32.09019 | 151.09676 | 32772 ft | 452 kts | 198° |
| 2026-04-25 03:31 | -32.11978 | 151.08348 | 31916 ft | 465 kts | 198° |
| 2026-04-25 03:32 | -32.15017 | 151.06982 | 31063 ft | 468 kts | 198° |
| 2026-04-25 03:32 | -32.18070 | 151.05608 | 30546 ft | 462 kts | 198° |
| 2026-04-25 03:32 | -32.21017 | 151.04279 | 30073 ft | 457 kts | 197° |
| 2026-04-25 03:32 | -32.24004 | 151.02933 | 29528 ft | 458 kts | 197° |
| 2026-04-25 03:33 | -32.26982 | 151.01590 | 28965 ft | 458 kts | 198° |
| 2026-04-25 03:33 | -32.29931 | 151.00259 | 28397 ft | 455 kts | 198° |
| 2026-04-25 03:33 | -32.32863 | 150.98935 | 27831 ft | 451 kts | 198° |
| 2026-04-25 03:33 | -32.35763 | 150.97624 | 27267 ft | 446 kts | 198° |
| 2026-04-25 03:34 | -32.38652 | 150.96318 | 26688 ft | 441 kts | 198° |
| 2026-04-25 03:34 | -32.41519 | 150.95021 | 26112 ft | 437 kts | 198° |
| 2026-04-25 03:34 | -32.44331 | 150.93747 | 25540 ft | 432 kts | 198° |
| 2026-04-25 03:34 | -32.47147 | 150.92590 | 24953 ft | 426 kts | 192° |
| 2026-04-25 03:35 | -32.50017 | 150.91960 | 24369 ft | 417 kts | 182° |
| 2026-04-25 03:35 | -32.52893 | 150.91888 | 23801 ft | 410 kts | 174° |
| 2026-04-25 03:35 | -32.55701 | 150.92279 | 23244 ft | 403 kts | 169° |
| 2026-04-25 03:35 | -32.58458 | 150.92764 | 22686 ft | 399 kts | 169° |
| 2026-04-25 03:36 | -32.61192 | 150.93248 | 22129 ft | 395 kts | 169° |
| 2026-04-25 03:36 | -32.63881 | 150.93726 | 21577 ft | 391 kts | 169° |
| 2026-04-25 03:36 | -32.66564 | 150.94202 | 21025 ft | 400 kts | 169° |
| 2026-04-25 03:36 | -32.69190 | 150.94669 | 20473 ft | 402 kts | 169° |
| 2026-04-25 03:37 | -32.72107 | 150.95186 | 19867 ft | 400 kts | 169° |
| 2026-04-25 03:37 | -32.75733 | 150.95830 | 19092 ft | 396 kts | 169° |
| 2026-04-25 03:37 | -32.77539 | 150.96150 | 18703 ft | 393 kts | 169° |
| 2026-04-25 03:37 | -32.80254 | 150.96632 | 18132 ft | 390 kts | 169° |
| 2026-04-25 03:38 | -32.82898 | 150.97102 | 17564 ft | 390 kts | 169° |
| 2026-04-25 03:38 | -32.85580 | 150.97580 | 16981 ft | 389 kts | 169° |
| 2026-04-25 03:38 | -32.88264 | 150.98058 | 16389 ft | 386 kts | 169° |
| 2026-04-25 03:38 | -32.90897 | 150.98528 | 15814 ft | 382 kts | 169° |
| 2026-04-25 03:39 | -32.93528 | 150.98996 | 15228 ft | 379 kts | 169° |
| 2026-04-25 03:39 | -32.96100 | 150.99455 | 14653 ft | 376 kts | 170° |
| 2026-04-25 03:39 | -32.98692 | 150.99918 | 14092 ft | 373 kts | 170° |
| 2026-04-25 03:39 | -33.01220 | 151.00369 | 13513 ft | 371 kts | 169° |
| 2026-04-25 03:40 | -33.03792 | 151.00829 | 12916 ft | 368 kts | 170° |
| 2026-04-25 03:40 | -33.06309 | 151.01279 | 12351 ft | 365 kts | 170° |
| 2026-04-25 03:40 | -33.08780 | 151.01720 | 11790 ft | 362 kts | 170° |
| 2026-04-25 03:40 | -33.11273 | 151.02167 | 11233 ft | 360 kts | 170° |
| 2026-04-25 03:41 | -33.13715 | 151.02603 | 11047 ft | 346 kts | 170° |
| 2026-04-25 03:41 | -33.16024 | 151.03017 | 10938 ft | 332 kts | 170° |
| 2026-04-25 03:41 | -33.18297 | 151.03424 | 10563 ft | 325 kts | 170° |
| 2026-04-25 03:41 | -33.20511 | 151.03821 | 10318 ft | 314 kts | 170° |
| 2026-04-25 03:42 | -33.22630 | 151.04201 | 10144 ft | 301 kts | 170° |
| 2026-04-25 03:42 | -33.24652 | 151.04567 | 10010 ft | 289 kts | 169° |
| 2026-04-25 03:42 | -33.26604 | 151.04942 | 9834 ft | 280 kts | 169° |
| 2026-04-25 03:42 | -33.28536 | 151.05318 | 9450 ft | 281 kts | 169° |
| 2026-04-25 03:43 | -33.30438 | 151.05684 | 9081 ft | 281 kts | 169° |
| 2026-04-25 03:43 | -33.32384 | 151.06058 | 8736 ft | 280 kts | 169° |
| 2026-04-25 03:43 | -33.34286 | 151.06422 | 8378 ft | 277 kts | 169° |
| 2026-04-25 03:43 | -33.36172 | 151.06784 | 8051 ft | 272 kts | 169° |
| 2026-04-25 03:44 | -33.38043 | 151.07143 | 7803 ft | 266 kts | 169° |
| 2026-04-25 03:44 | -33.39873 | 151.07494 | 7651 ft | 267 kts | 169° |
| 2026-04-25 03:44 | -33.41689 | 151.07843 | 7483 ft | 267 kts | 169° |
| 2026-04-25 03:44 | -33.43531 | 151.08197 | 7311 ft | 266 kts | 169° |
| 2026-04-25 03:45 | -33.45368 | 151.08550 | 7131 ft | 266 kts | 169° |
| 2026-04-25 03:45 | -33.47181 | 151.08897 | 6957 ft | 265 kts | 169° |
| 2026-04-25 03:45 | -33.49026 | 151.09253 | 6782 ft | 265 kts | 169° |
| 2026-04-25 03:45 | -33.50835 | 151.09601 | 6598 ft | 265 kts | 169° |
| 2026-04-25 03:46 | -33.52666 | 151.09953 | 6419 ft | 265 kts | 169° |
| 2026-04-25 03:46 | -33.54481 | 151.10303 | 6247 ft | 265 kts | 169° |
| 2026-04-25 03:46 | -33.56295 | 151.10652 | 6077 ft | 265 kts | 170° |
| 2026-04-25 03:46 | -33.58118 | 151.11003 | 5907 ft | 264 kts | 169° |
| 2026-04-25 03:47 | -33.59931 | 151.11353 | 5727 ft | 264 kts | 169° |
| 2026-04-25 03:47 | -33.61768 | 151.11706 | 5541 ft | 263 kts | 169° |
| 2026-04-25 03:47 | -33.63562 | 151.12061 | 5378 ft | 263 kts | 169° |
| 2026-04-25 03:47 | -33.65367 | 151.12411 | 5186 ft | 263 kts | 172° |
| 2026-04-25 03:48 | -33.67184 | 151.12584 | 4923 ft | 261 kts | 175° |
| 2026-04-25 03:48 | -33.68987 | 151.12778 | 4746 ft | 255 kts | 173° |
| 2026-04-25 03:48 | -33.70712 | 151.12996 | 4620 ft | 246 kts | 172° |
| 2026-04-25 03:48 | -33.72407 | 151.13242 | 4386 ft | 244 kts | 171° |
| 2026-04-25 03:49 | -33.74078 | 151.13554 | 4059 ft | 245 kts | 169° |
| 2026-04-25 03:49 | -33.75773 | 151.13930 | 3730 ft | 247 kts | 168° |
| 2026-04-25 03:49 | -33.77470 | 151.14339 | 3403 ft | 248 kts | 167° |
| 2026-04-25 03:49 | -33.79158 | 151.14760 | 3072 ft | 243 kts | 167° |
| 2026-04-25 03:50 | -33.80758 | 151.15166 | 2764 ft | 230 kts | 166° |
| 2026-04-25 03:50 | -33.82285 | 151.15556 | 2470 ft | 223 kts | 166° |
| 2026-04-25 03:50 | -33.83800 | 151.15950 | 2190 ft | 217 kts | 166° |
| 2026-04-25 03:50 | -33.85704 | 151.16444 | 1820 ft | 203 kts | 166° |
| 2026-04-25 03:51 | -33.86604 | 151.16676 | 1643 ft | 196 kts | 166° |
| 2026-04-25 03:51 | -33.87869 | 151.17004 | 1403 ft | 187 kts | 166° |
| 2026-04-25 03:51 | -33.89140 | 151.17333 | 1172 ft | 177 kts | 166° |
| 2026-04-25 03:51 | -33.90311 | 151.17635 | 949 ft | 166 kts | 166° |
| 2026-04-25 03:52 | -33.91419 | 151.17921 | 731 ft | 159 kts | 166° |
| 2026-04-25 03:52 | -33.92496 | 151.18192 | 497 ft | 156 kts | 165° |
| 2026-04-25 03:52 | -33.93555 | 151.18460 | 344 ft | 158 kts | 166° |
| 2026-04-25 03:52 | -33.94626 | 151.18730 | 143 ft | 152 kts | 165° |
| 2026-04-25 03:53 | -33.95610 | 151.19000 | 34 ft | 129 kts | 168° |
| 2026-04-25 03:53 | -33.96261 | 151.19168 | 34 ft | 64 kts | 167° |
| 2026-04-25 03:53 | -33.96614 | 151.19258 | 34 ft | 44 kts | 166° |
| 2026-04-25 03:53 | -33.96905 | 151.19295 | 34 ft | 38 kts | 185° |
| 2026-04-25 03:54 | -33.97089 | 151.19244 | 34 ft | 22 kts | 214° |
| 2026-04-25 03:54 | -33.97081 | 151.19141 | 34 ft | 12 kts | 337° |
| 2026-04-25 03:54 | -33.97000 | 151.19115 | 34 ft | 11 kts | 347° |
| 2026-04-25 03:54 | -33.96915 | 151.19092 | 34 ft | 13 kts | 347° |
| 2026-04-25 03:55 | -33.96811 | 151.19067 | 34 ft | 16 kts | 357° |
| 2026-04-25 03:55 | -33.96640 | 151.19063 | 34 ft | 20 kts | 349° |
| 2026-04-25 03:55 | -33.96545 | 151.19038 | 34 ft | 21 kts | 347° |
| 2026-04-25 03:55 | -33.96337 | 151.18985 | 34 ft | 24 kts | 348° |
| 2026-04-25 03:56 | -33.96224 | 151.18956 | 34 ft | 25 kts | 348° |
| 2026-04-25 03:56 | -33.96043 | 151.18909 | 34 ft | 26 kts | 348° |
| 2026-04-25 03:56 | -33.95866 | 151.18863 | 34 ft | 25 kts | 347° |
| 2026-04-25 03:56 | -33.95696 | 151.18819 | 34 ft | 24 kts | 348° |
| 2026-04-25 03:57 | -33.95530 | 151.18776 | 34 ft | 23 kts | 348° |
| 2026-04-25 03:57 | -33.95373 | 151.18736 | 34 ft | 22 kts | 347° |
| 2026-04-25 03:57 | -33.95231 | 151.18666 | 34 ft | 21 kts | 326° |
| 2026-04-25 03:57 | -33.95130 | 151.18536 | 34 ft | 20 kts | 294° |
| 2026-04-25 03:58 | -33.95127 | 151.18370 | 34 ft | 20 kts | 258° |
| 2026-04-25 03:58 | -33.95155 | 151.18210 | 34 ft | 19 kts | 258° |
| 2026-04-25 03:58 | -33.95183 | 151.18056 | 34 ft | 17 kts | 257° |
| 2026-04-25 03:58 | -33.95202 | 151.17950 | 34 ft | 7 kts | 257° |
| 2026-04-25 03:59 | -33.95208 | 151.17918 | 34 ft | 0 kts | 258° |
| 2026-04-25 03:59 | -33.95208 | 151.17917 | 34 ft | 1 kts | 258° |
| 2026-04-25 03:59 | -33.95225 | 151.17827 | 34 ft | 20 kts | 258° |
| 2026-04-25 04:00 | -33.95258 | 151.17639 | 34 ft | 21 kts | 258° |
| 2026-04-25 04:00 | -33.95171 | 151.17537 | 34 ft | 19 kts | 346° |
| 2026-04-25 04:00 | -33.95041 | 151.17502 | 34 ft | 18 kts | 348° |
| 2026-04-25 04:00 | -33.94919 | 151.17470 | 34 ft | 17 kts | 347° |
| 2026-04-25 04:01 | -33.94804 | 151.17439 | 34 ft | 16 kts | 348° |
| 2026-04-25 04:01 | -33.94695 | 151.17412 | 34 ft | 15 kts | 348° |
| 2026-04-25 04:01 | -33.94591 | 151.17386 | 34 ft | 14 kts | 348° |
| 2026-04-25 04:01 | -33.94492 | 151.17360 | 34 ft | 14 kts | 348° |
| 2026-04-25 04:02 | -33.94397 | 151.17335 | 34 ft | 13 kts | 348° |
| 2026-04-25 04:02 | -33.94307 | 151.17313 | 34 ft | 13 kts | 347° |
| 2026-04-25 04:02 | -33.94220 | 151.17288 | 34 ft | 12 kts | 347° |
| 2026-04-25 04:02 | -33.94134 | 151.17265 | 34 ft | 12 kts | 348° |
| 2026-04-25 04:03 | -33.94047 | 151.17242 | 34 ft | 13 kts | 348° |
| 2026-04-25 04:03 | -33.93990 | 151.17177 | 34 ft | 12 kts | 270° |
| 2026-04-25 04:03 | -33.94009 | 151.17068 | 34 ft | 13 kts | 256° |
| 2026-04-25 04:03 | -33.94035 | 151.16960 | 34 ft | 13 kts | 254° |
| 2026-04-25 04:04 | -33.94049 | 151.16849 | 34 ft | 13 kts | 291° |
| 2026-04-25 04:04 | -33.93973 | 151.16791 | 34 ft | 13 kts | 341° |
| 2026-04-25 04:04 | -33.93943 | 151.16766 | 34 ft | 3 kts | 303° |
| 2026-04-25 04:04 | -33.93931 | 151.16742 | 34 ft | 3 kts | 284° |
| 2026-04-25 04:05 | -33.93932 | 151.16711 | 34 ft | 3 kts | 263° |
| 2026-04-25 04:05 | -33.93933 | 151.16704 | 34 ft | 0 kts | 263° |